createdAt,value
2022-08-27T00:02:08.626Z,85822.19
2022-08-27T00:04:37.444Z,85786.41
2022-08-27T00:07:06.017Z,85809.63
2022-08-27T00:09:34.509Z,85807.06
2022-08-27T00:12:02.481Z,85806.22
2022-08-27T00:14:31.023Z,85790.81
2022-08-27T00:16:58.692Z,85801.16
2022-08-27T00:19:27.318Z,85786.66
2022-08-27T00:21:55.978Z,85766.94
2022-08-27T00:24:25.264Z,85820.84
2022-08-27T00:26:53.931Z,85798.81
2022-08-27T00:29:22.655Z,85803.66
2022-08-27T00:31:52.970Z,85785.84
2022-08-27T00:34:23.279Z,85753.84
2022-08-27T00:36:50.763Z,85788.25
2022-08-27T00:39:19.471Z,85766.41
2022-08-27T00:41:47.544Z,85806.19
2022-08-27T00:44:17.128Z,85789.41
2022-08-27T00:46:50.193Z,85829.19
2022-08-27T00:49:26.551Z,85821.44
2022-08-27T00:52:01.585Z,85825.03
2022-08-27T00:54:30.532Z,85804.00
2022-08-27T00:56:59.949Z,85815.41
2022-08-27T00:59:32.992Z,85784.72
2022-08-27T01:02:20.289Z,85814.81
2022-08-27T01:05:13.881Z,85821.44
2022-08-27T01:07:46.996Z,85788.81
2022-08-27T01:10:19.576Z,85787.19
2022-08-27T01:12:53.481Z,85814.44
2022-08-27T01:15:25.317Z,85782.97
2022-08-27T01:17:54.090Z,85818.16
2022-08-27T01:20:46.307Z,85773.28
2022-08-27T01:23:40.456Z,85799.84
2022-08-27T01:26:14.180Z,85814.38
2022-08-27T01:28:42.880Z,85813.50
2022-08-27T01:31:12.685Z,85821.91
2022-08-27T01:33:41.240Z,85772.75
2022-08-27T01:36:08.833Z,85760.59
2022-08-27T01:38:37.098Z,85773.75
2022-08-27T01:41:04.918Z,85808.84
2022-08-27T01:43:34.280Z,85816.19
2022-08-27T01:46:01.577Z,85804.53
2022-08-27T01:48:32.708Z,85826.16
2022-08-27T01:51:00.406Z,85818.91
2022-08-27T01:53:28.974Z,85757.66
2022-08-27T01:55:57.464Z,85767.84
2022-08-27T01:58:28.647Z,85775.19
2022-08-27T02:01:03.895Z,85777.38
2022-08-27T02:03:32.766Z,85828.75
2022-08-27T02:06:06.727Z,85811.16
2022-08-27T02:08:37.930Z,85816.31
2022-08-27T02:11:08.571Z,85782.81
2022-08-27T02:13:36.609Z,85825.03
2022-08-27T02:16:04.875Z,85788.34
2022-08-27T02:18:32.456Z,85816.63
2022-08-27T02:20:59.883Z,85817.38
2022-08-27T02:23:29.943Z,85807.94
2022-08-27T02:25:57.565Z,85795.06
2022-08-27T02:28:25.103Z,85806.31
2022-08-27T02:30:52.524Z,85801.28
2022-08-27T02:33:20.018Z,85789.16
2022-08-27T02:35:48.913Z,85801.41
2022-08-27T02:38:16.345Z,85812.84
2022-08-27T02:40:45.202Z,85793.63
2022-08-27T02:43:15.949Z,85804.38
2022-08-27T02:45:53.744Z,85819.63
2022-08-27T02:48:21.815Z,85807.00
2022-08-27T02:50:50.134Z,85824.31
2022-08-27T02:53:18.665Z,85776.34
2022-08-27T02:55:46.763Z,85813.34
2022-08-27T02:58:17.027Z,85782.13
2022-08-27T03:00:48.795Z,85783.59
2022-08-27T03:03:16.517Z,85780.94
2022-08-27T03:05:44.022Z,85818.41
2022-08-27T03:08:12.702Z,85808.88
2022-08-27T03:10:40.474Z,85781.03
2022-08-27T03:13:10.712Z,85772.84
2022-08-27T03:15:38.246Z,85811.97
2022-08-27T03:18:22.357Z,85802.94
2022-08-27T03:20:56.111Z,85786.75
2022-08-27T03:23:26.544Z,85793.50
2022-08-27T03:25:59.227Z,85823.53
2022-08-27T03:28:30.468Z,85788.75
2022-08-27T03:31:01.426Z,85807.28
2022-08-27T03:33:33.072Z,85809.53
2022-08-27T03:36:00.759Z,85804.69
2022-08-27T03:38:28.463Z,85771.19
2022-08-27T03:40:56.402Z,85824.44
2022-08-27T03:43:24.685Z,85834.94
2022-08-27T03:46:01.863Z,85789.88
2022-08-27T03:48:34.376Z,85805.22
2022-08-27T03:51:16.470Z,85805.78
2022-08-27T03:53:47.170Z,85783.22
2022-08-27T03:56:14.913Z,85833.72
2022-08-27T03:58:45.568Z,85836.66
2022-08-27T04:01:14.236Z,85805.88
2022-08-27T04:03:41.647Z,85805.19
2022-08-27T04:06:10.411Z,85828.06
2022-08-27T04:08:37.768Z,85794.25
2022-08-27T04:11:07.816Z,85838.16
2022-08-27T04:13:38.860Z,85837.53
2022-08-27T04:22:29.467Z,85843.84
2022-08-27T04:24:58.324Z,85842.16
2022-08-27T04:27:28.387Z,85807.94
2022-08-27T04:29:58.509Z,85843.84
2022-08-27T04:32:27.809Z,85834.88
2022-08-27T04:35:01.212Z,85844.81
2022-08-27T04:37:33.373Z,85820.44
2022-08-27T04:42:50.006Z,85833.53
2022-08-27T04:45:17.463Z,85812.25
2022-08-27T04:47:46.099Z,85827.38
2022-08-27T04:50:13.517Z,85821.28
2022-08-27T04:52:42.921Z,85858.75
2022-08-27T04:55:10.627Z,85850.34
2022-08-27T04:57:41.396Z,85840.72
2022-08-27T05:00:09.819Z,85846.13
2022-08-27T05:02:37.167Z,85845.50
2022-08-27T05:05:05.083Z,85857.63
2022-08-27T05:07:32.573Z,85843.47
2022-08-27T05:10:01.193Z,85843.84
2022-08-27T05:12:28.522Z,85860.75
2022-08-27T05:14:57.722Z,85842.91
2022-08-27T05:17:25.086Z,85864.25
2022-08-27T05:19:53.915Z,85884.41
2022-08-27T05:22:21.370Z,85873.09
2022-08-27T05:24:51.290Z,85830.06
2022-08-27T05:27:18.390Z,85840.81
2022-08-27T05:29:46.781Z,85861.41
2022-08-27T05:32:14.161Z,85876.91
2022-08-27T05:34:42.585Z,85885.72
2022-08-27T05:37:10.719Z,85844.59
2022-08-27T05:39:39.073Z,85860.28
2022-08-27T05:42:07.359Z,85879.91
2022-08-27T05:44:42.973Z,85876.28
2022-08-27T05:47:11.264Z,85887.31
2022-08-27T05:49:39.234Z,85886.72
2022-08-27T05:52:10.103Z,85871.13
2022-08-27T05:54:40.191Z,85888.97
2022-08-27T05:57:07.873Z,85882.88
2022-08-27T05:59:55.237Z,85892.94
2022-08-27T06:02:23.456Z,85867.13
2022-08-27T06:04:51.181Z,85896.56
2022-08-27T06:07:19.896Z,85880.19
2022-08-27T06:12:46.840Z,85847.00
2022-08-27T06:15:14.370Z,85834.25
2022-08-27T06:17:42.446Z,85897.75
2022-08-27T06:20:11.756Z,85881.72
2022-08-27T06:22:39.167Z,85876.94
2022-08-27T06:25:08.154Z,85898.94
2022-08-27T06:27:35.662Z,85816.63
2022-08-27T06:30:04.710Z,85850.91
2022-08-27T06:32:32.091Z,85914.09
2022-08-27T06:35:00.277Z,85912.56
2022-08-27T06:37:27.948Z,85894.34
2022-08-27T06:39:56.176Z,85917.84
2022-08-27T06:42:24.010Z,85899.16
2022-08-27T06:44:55.217Z,85921.72
2022-08-27T06:47:23.008Z,85921.03
2022-08-27T06:49:50.495Z,85923.84
2022-08-27T06:52:18.217Z,85894.31
2022-08-27T06:54:46.009Z,85923.91
2022-08-27T06:57:14.734Z,85903.44
2022-08-27T06:59:42.416Z,85888.25
2022-08-27T07:02:13.811Z,85923.56
2022-08-27T07:04:41.578Z,85920.28
2022-08-27T07:07:14.241Z,85896.56
2022-08-27T07:09:56.239Z,85926.84
2022-08-27T07:12:24.692Z,85907.22
2022-08-27T07:14:58.666Z,85932.25
2022-08-27T07:17:27.974Z,85939.13
2022-08-27T07:19:56.701Z,85923.56
2022-08-27T07:22:24.723Z,85898.81
2022-08-27T07:24:54.286Z,85942.44
2022-08-27T07:27:21.990Z,85893.53
2022-08-27T07:29:50.422Z,85924.56
2022-08-27T07:32:18.400Z,85950.84
2022-08-27T07:34:47.042Z,85873.81
2022-08-27T07:37:15.191Z,85922.97
2022-08-27T07:39:43.935Z,85880.63
2022-08-27T07:42:29.898Z,85920.91
2022-08-27T07:44:58.525Z,85908.53
2022-08-27T07:47:25.981Z,85863.19
2022-08-27T07:49:54.668Z,85926.56
2022-08-27T07:52:26.314Z,85920.59
2022-08-27T07:54:55.490Z,85951.22
2022-08-27T07:57:22.952Z,85955.09
2022-08-27T07:59:53.656Z,85949.81
2022-08-27T08:02:21.336Z,85931.44
2022-08-27T08:04:49.344Z,85898.69
2022-08-27T08:07:17.204Z,85939.88
2022-08-27T08:09:44.668Z,85936.75
2022-08-27T08:12:14.433Z,85941.75
2022-08-27T08:14:41.955Z,85950.56
2022-08-27T08:17:10.802Z,85935.09
2022-08-27T08:19:38.421Z,85931.84
2022-08-27T08:22:06.964Z,85944.97
2022-08-27T08:24:36.617Z,85959.81
2022-08-27T08:27:08.139Z,85917.81
2022-08-27T08:29:36.151Z,85937.25
2022-08-27T08:32:09.768Z,85950.72
2022-08-27T08:34:41.355Z,85901.06
2022-08-27T08:37:14.915Z,85957.25
2022-08-27T08:39:42.776Z,85856.31
2022-08-27T08:42:51.842Z,85957.66
2022-08-27T08:45:27.151Z,85956.59
2022-08-27T08:48:20.332Z,85952.69
2022-08-27T08:51:03.338Z,85954.91
2022-08-27T08:53:51.536Z,85951.56
2022-08-27T08:56:29.168Z,85911.66
2022-08-27T08:59:11.695Z,85960.69
2022-08-27T09:01:39.381Z,85947.25
2022-08-27T09:04:11.171Z,85952.97
2022-08-27T09:07:09.940Z,85958.28
2022-08-27T09:10:02.258Z,85965.09
2022-08-27T09:12:34.843Z,85908.66
2022-08-27T09:15:12.475Z,85955.72
2022-08-27T09:17:42.412Z,85952.91
2022-08-27T09:20:14.018Z,85964.00
2022-08-27T09:23:17.410Z,85962.75
2022-08-27T09:25:45.072Z,85934.69
2022-08-27T09:28:35.132Z,85974.63
2022-08-27T09:31:08.794Z,85936.88
2022-08-27T09:33:44.607Z,85964.22
2022-08-27T09:36:24.333Z,85956.31
2022-08-27T09:39:03.547Z,85969.19
2022-08-27T09:41:43.465Z,85932.69
2022-08-27T09:44:15.023Z,85961.28
2022-08-27T09:46:53.259Z,85947.94
2022-08-27T09:49:22.310Z,85961.84
2022-08-27T09:51:49.610Z,85945.59
2022-08-27T09:54:29.254Z,85954.63
2022-08-27T09:56:58.869Z,85968.06
2022-08-27T09:59:34.804Z,85936.88
2022-08-27T10:02:15.329Z,85965.81
2022-08-27T10:04:50.668Z,85929.19
2022-08-27T10:07:23.006Z,85964.91
2022-08-27T10:10:22.270Z,85972.16
2022-08-27T10:13:01.404Z,85963.13
2022-08-27T10:15:49.568Z,85962.91
2022-08-27T10:18:17.787Z,85966.28
2022-08-27T10:21:15.501Z,85951.38
2022-08-27T10:23:48.450Z,85925.19
2022-08-27T10:26:34.541Z,85953.88
2022-08-27T10:29:08.270Z,85970.50
2022-08-27T10:31:55.501Z,85971.16
2022-08-27T10:34:43.301Z,85961.91
2022-08-27T10:37:36.569Z,85918.84
2022-08-27T10:40:10.447Z,85978.16
2022-08-27T10:43:05.964Z,85964.47
2022-08-27T10:45:48.310Z,85974.50
2022-08-27T10:48:26.568Z,85973.97
2022-08-27T10:51:06.936Z,85977.13
2022-08-27T10:53:54.758Z,85969.06
2022-08-27T10:57:14.495Z,85945.56
2022-08-27T10:59:57.750Z,85961.50
2022-08-27T11:02:32.082Z,85972.31
2022-08-27T11:05:22.889Z,85967.75
2022-08-27T11:08:00.186Z,85969.31
2022-08-27T11:10:35.339Z,85965.19
2022-08-27T11:13:40.066Z,85945.84
2022-08-27T11:16:17.557Z,85955.13
2022-08-27T11:18:58.853Z,85968.63
2022-08-27T11:22:01.926Z,85966.94
2022-08-27T11:24:36.636Z,85964.41
2022-08-27T11:27:08.336Z,85959.59
2022-08-27T11:30:17.431Z,85967.13
2022-08-27T11:33:14.129Z,85935.78
2022-08-27T11:36:00.084Z,85962.94
2022-08-27T11:39:17.504Z,85972.28
2022-08-27T11:42:09.433Z,85969.41
2022-08-27T11:44:44.983Z,85950.69
2022-08-27T11:47:21.988Z,85923.59
2022-08-27T11:50:01.527Z,85962.88
2022-08-27T11:52:39.898Z,85967.44
2022-08-27T11:55:31.355Z,85945.34
2022-08-27T11:58:18.099Z,85947.44
2022-08-27T12:00:48.637Z,85933.94
2022-08-27T12:03:22.067Z,85959.56
2022-08-27T12:06:09.477Z,85954.88
2022-08-27T12:08:39.102Z,85927.91
2022-08-27T12:11:20.149Z,85952.03
2022-08-27T12:13:55.339Z,85952.88
2022-08-27T12:17:01.331Z,85920.41
2022-08-27T12:19:29.238Z,85947.72
2022-08-27T12:22:06.438Z,85939.00
2022-08-27T12:24:49.363Z,85939.97
2022-08-27T12:27:26.277Z,85940.41
2022-08-27T12:30:19.834Z,85936.88
2022-08-27T12:32:52.818Z,85941.31
2022-08-27T12:35:41.526Z,85945.06
2022-08-27T12:38:42.906Z,85949.66
2022-08-27T12:41:29.050Z,85931.06
2022-08-27T12:44:12.877Z,85948.13
2022-08-27T12:46:59.794Z,85954.75
2022-08-27T12:49:39.695Z,85944.72
2022-08-27T12:52:36.513Z,85949.53
2022-08-27T12:55:14.157Z,85955.13
2022-08-27T12:58:23.679Z,85943.81
2022-08-27T13:01:00.987Z,85954.75
2022-08-27T13:03:39.018Z,85921.66
2022-08-27T13:06:34.466Z,85956.84
2022-08-27T13:09:06.680Z,85952.84
2022-08-27T13:11:48.580Z,85924.28
2022-08-27T13:14:22.437Z,85953.03
2022-08-27T13:16:58.001Z,85924.28
2022-08-27T13:19:37.424Z,85907.97
2022-08-27T13:22:07.660Z,85825.28
2022-08-27T13:24:44.739Z,85941.63
2022-08-27T13:27:13.616Z,85934.44
2022-08-27T13:29:44.978Z,85951.25
2022-08-27T13:32:15.210Z,85889.25
2022-08-27T13:34:42.737Z,85942.59
2022-08-27T13:37:47.910Z,85951.69
2022-08-27T13:40:31.125Z,85924.22
2022-08-27T13:43:13.970Z,85864.28
2022-08-27T13:45:44.614Z,85843.97
2022-08-27T13:48:16.366Z,85922.06
2022-08-27T13:50:52.835Z,85930.44
2022-08-27T13:53:43.430Z,85926.25
2022-08-27T13:56:11.673Z,85970.53
2022-08-27T13:58:39.308Z,85980.00
2022-08-27T14:01:16.766Z,85973.59
2022-08-27T14:04:06.770Z,86001.22
2022-08-27T14:06:43.351Z,85985.72
2022-08-27T14:09:20.224Z,85985.25
2022-08-27T14:11:49.356Z,85940.69
2022-08-27T14:14:19.272Z,85969.81
2022-08-27T14:16:58.338Z,85981.09
2022-08-27T14:19:25.998Z,85992.66
2022-08-27T14:21:54.860Z,85989.25
2022-08-27T14:24:22.627Z,85991.47
2022-08-27T14:26:55.755Z,85943.72
2022-08-27T14:29:23.484Z,85978.00
2022-08-27T14:31:50.927Z,85990.66
2022-08-27T14:34:19.499Z,85960.25
2022-08-27T14:36:47.886Z,85985.31
2022-08-27T14:39:18.517Z,85980.25
2022-08-27T14:41:49.699Z,85979.44
2022-08-27T14:44:19.047Z,85992.94
2022-08-27T14:46:47.630Z,85991.00
2022-08-27T14:49:26.227Z,85997.69
2022-08-27T14:51:54.457Z,85977.97
2022-08-27T14:54:28.913Z,85999.44
2022-08-27T14:57:03.140Z,85984.38
2022-08-27T14:59:31.084Z,86000.00
2022-08-27T15:02:00.389Z,85970.19
2022-08-27T15:04:28.798Z,85997.09
2022-08-27T15:06:56.627Z,86009.72
2022-08-27T15:09:25.001Z,85996.41
2022-08-27T15:11:53.337Z,86013.56
2022-08-27T15:14:23.793Z,86001.94
2022-08-27T15:16:52.972Z,85974.72
2022-08-27T15:19:22.573Z,86014.06
2022-08-27T15:21:52.148Z,86006.69
2022-08-27T15:24:26.385Z,86008.84
2022-08-27T15:26:58.582Z,86003.19
2022-08-27T15:29:27.262Z,85968.59
2022-08-27T15:31:55.237Z,85994.94
2022-08-27T15:34:23.728Z,85973.00
2022-08-27T15:36:53.768Z,85980.84
2022-08-27T15:39:22.188Z,85950.41
2022-08-27T15:42:05.858Z,85971.91
2022-08-27T15:44:39.094Z,85986.31
2022-08-27T15:47:07.303Z,85957.25
2022-08-27T15:49:35.410Z,85968.25
2022-08-27T15:52:04.272Z,86004.28
2022-08-27T15:54:31.990Z,85962.22
2022-08-27T15:57:03.640Z,86000.88
2022-08-27T16:02:19.150Z,85946.66
2022-08-27T16:04:49.307Z,86007.38
2022-08-27T16:07:21.096Z,86006.28
2022-08-27T16:09:49.339Z,85971.09
2022-08-27T16:12:27.508Z,86001.13
2022-08-27T16:14:56.460Z,86004.34
2022-08-27T16:17:26.696Z,85986.06
2022-08-27T16:19:55.634Z,85994.41
2022-08-27T16:22:23.305Z,85972.56
2022-08-27T16:24:52.223Z,86020.44
2022-08-27T16:27:19.686Z,85960.47
2022-08-27T16:29:48.300Z,85981.06
2022-08-27T16:32:18.957Z,86024.03
2022-08-27T16:34:55.499Z,85942.13
2022-08-27T16:37:25.268Z,85963.19
2022-08-27T16:39:54.168Z,86024.97
2022-08-27T16:42:22.482Z,86023.13
2022-08-27T16:44:50.013Z,86004.59
2022-08-27T16:47:18.193Z,86032.81
2022-08-27T16:50:04.125Z,86000.06
2022-08-27T16:52:32.556Z,86024.50
2022-08-27T16:55:00.632Z,86010.97
2022-08-27T16:57:29.781Z,85985.53
2022-08-27T16:59:57.342Z,86002.81
2022-08-27T17:02:31.102Z,86017.03
2022-08-27T17:05:17.326Z,86028.28
2022-08-27T17:07:50.463Z,86025.72
2022-08-27T17:10:21.167Z,86039.00
2022-08-27T17:12:52.172Z,86022.66
2022-08-27T17:15:20.385Z,86047.44
2022-08-27T17:17:48.100Z,86043.19
2022-08-27T17:20:16.693Z,86035.44
2022-08-27T17:22:44.329Z,85961.34
2022-08-27T17:25:12.169Z,86049.41
2022-08-27T17:27:39.547Z,85973.19
2022-08-27T17:30:09.356Z,86050.00
2022-08-27T17:32:40.004Z,86008.47
2022-08-27T17:35:10.313Z,86034.69
2022-08-27T17:37:38.598Z,86006.09
2022-08-27T17:40:07.661Z,86025.25
2022-08-27T17:42:35.682Z,86075.91
2022-08-27T17:45:09.492Z,86060.84
2022-08-27T17:47:41.654Z,86075.31
2022-08-27T17:50:09.626Z,86071.88
2022-08-27T17:52:40.264Z,86049.44
2022-08-27T17:55:09.066Z,86079.56
2022-08-27T17:57:40.867Z,86054.72
2022-08-27T18:00:14.618Z,86065.59
2022-08-27T18:02:48.981Z,86052.75
2022-08-27T18:05:22.673Z,86080.59
2022-08-27T18:07:51.135Z,86049.75
2022-08-27T18:10:24.570Z,86018.44
2022-08-27T18:12:55.376Z,86014.34
2022-08-27T18:15:27.486Z,86058.03
2022-08-27T18:17:56.515Z,86093.19
2022-08-27T18:20:27.263Z,86094.72
2022-08-27T18:22:55.553Z,86085.84
2022-08-27T18:25:25.619Z,86088.44
2022-08-27T18:27:57.283Z,86070.59
2022-08-27T18:30:25.746Z,86093.03
2022-08-27T18:32:53.683Z,86066.69
2022-08-27T18:35:31.242Z,86097.44
2022-08-27T18:38:01.724Z,86079.97
2022-08-27T18:40:36.068Z,86056.88
2022-08-27T18:43:05.283Z,86081.34
2022-08-27T18:45:36.187Z,86089.91
2022-08-27T18:48:17.386Z,86066.03
2022-08-27T18:50:51.991Z,86089.53
2022-08-27T18:53:21.427Z,86114.84
2022-08-27T18:56:00.759Z,86126.00
2022-08-27T18:58:29.564Z,86109.66
2022-08-27T19:01:01.397Z,86101.44
2022-08-27T19:03:36.951Z,86075.19
2022-08-27T19:06:08.877Z,86088.53
2022-08-27T19:08:39.970Z,86125.44
2022-08-27T19:11:08.930Z,86126.59
2022-08-27T19:13:36.917Z,86068.41
2022-08-27T19:16:22.577Z,86089.09
2022-08-27T19:18:50.589Z,86104.91
2022-08-27T19:21:18.357Z,86117.28
2022-08-27T19:23:49.471Z,86067.06
2022-08-27T19:26:20.130Z,86137.44
2022-08-27T19:28:48.651Z,86098.56
2022-08-27T19:31:16.574Z,86075.97
2022-08-27T19:33:45.861Z,86136.31
2022-08-27T19:36:16.034Z,86139.28
2022-08-27T19:38:46.667Z,86080.47
2022-08-27T19:41:14.183Z,86074.78
2022-08-27T19:43:44.721Z,86131.53
2022-08-27T19:46:17.361Z,86110.47
2022-08-27T19:48:45.199Z,86094.25
2022-08-27T19:51:14.691Z,86118.81
2022-08-27T19:53:43.574Z,86064.97
2022-08-27T19:56:13.877Z,86099.84
2022-08-27T19:58:43.590Z,86129.19
2022-08-27T20:01:12.489Z,86144.38
2022-08-27T20:03:41.208Z,86126.16
2022-08-27T20:06:11.559Z,86104.25
2022-08-27T20:08:39.163Z,86156.34
2022-08-27T20:11:06.886Z,86154.97
2022-08-27T20:13:34.769Z,86127.91
2022-08-27T20:16:05.400Z,86149.69
2022-08-27T20:18:35.881Z,86149.59
2022-08-27T20:21:05.959Z,86154.00
2022-08-27T20:23:34.681Z,86139.03
2022-08-27T20:26:02.666Z,86160.44
2022-08-27T20:28:39.726Z,86163.22
2022-08-27T20:31:08.637Z,86156.94
2022-08-27T20:33:36.664Z,86158.59
2022-08-27T20:36:06.583Z,86127.00
2022-08-27T20:38:35.318Z,86148.81
2022-08-27T20:41:03.034Z,86148.81
2022-08-27T20:43:31.026Z,86130.00
2022-08-27T20:45:58.835Z,86134.22
2022-08-27T20:48:26.926Z,86081.13
2022-08-27T20:50:57.484Z,86115.25
2022-08-27T20:53:26.341Z,86134.44
2022-08-27T20:55:56.814Z,86153.50
2022-08-27T20:58:44.389Z,86157.91
2022-08-27T21:01:12.389Z,86110.44
2022-08-27T21:03:40.333Z,86132.47
2022-08-27T21:06:08.224Z,86129.50
2022-08-27T21:08:41.208Z,86125.97
2022-08-27T21:11:14.485Z,86158.44
2022-08-27T21:13:55.659Z,86154.38
2022-08-27T21:16:26.174Z,86138.66
2022-08-27T21:18:54.017Z,86150.56
2022-08-27T21:21:23.520Z,86131.44
2022-08-27T21:23:51.242Z,86161.69
2022-08-27T21:26:23.986Z,86119.28
2022-08-27T21:28:55.763Z,86106.16
2022-08-27T21:31:25.501Z,86147.06
2022-08-27T21:33:53.222Z,86140.22
2022-08-27T21:36:21.945Z,86116.28
2022-08-27T21:38:50.257Z,86104.13
2022-08-27T21:41:17.647Z,86141.41
2022-08-27T21:43:46.857Z,86138.41
2022-08-27T21:46:14.446Z,86098.94
2022-08-27T21:48:43.763Z,86154.78
2022-08-27T21:51:14.658Z,86120.66
2022-08-27T21:53:52.710Z,86150.69
2022-08-27T21:56:20.165Z,86149.31
2022-08-27T21:58:48.423Z,86144.63
2022-08-27T22:01:16.302Z,86113.41
2022-08-27T22:03:47.097Z,86115.94
2022-08-27T22:06:15.135Z,86124.88
2022-08-27T22:08:43.823Z,86157.25
2022-08-27T22:11:12.941Z,86153.09
2022-08-27T22:13:41.684Z,86157.94
2022-08-27T22:16:10.435Z,86148.25
2022-08-27T22:18:38.041Z,86147.56
2022-08-27T22:21:07.714Z,86137.72
2022-08-27T22:23:35.241Z,86100.78
2022-08-27T22:26:04.955Z,86059.59
2022-08-27T22:28:32.669Z,86127.34
2022-08-27T22:31:01.063Z,86139.44
2022-08-27T22:33:29.039Z,86107.81
2022-08-27T22:35:57.427Z,86100.50
2022-08-27T22:38:24.532Z,85930.00
2022-08-27T22:40:54.810Z,86119.44
2022-08-27T22:43:22.283Z,86126.13
2022-08-27T22:45:50.755Z,86116.28
2022-08-27T22:48:18.573Z,86126.31
2022-08-27T22:50:47.009Z,86123.72
2022-08-27T22:53:15.337Z,86105.41
2022-08-27T22:55:49.426Z,86147.84
2022-08-27T22:58:18.443Z,86136.66
2022-08-27T23:00:55.217Z,86144.38
2022-08-27T23:03:23.088Z,86150.16
2022-08-27T23:05:51.161Z,86108.59
2022-08-27T23:08:19.141Z,86140.19
2022-08-27T23:10:46.714Z,86131.50
2022-08-27T23:13:14.946Z,86139.09
2022-08-27T23:15:42.634Z,86137.31
2022-08-27T23:18:10.685Z,86140.88
2022-08-27T23:20:38.298Z,86128.59
2022-08-27T23:23:08.170Z,86136.75
2022-08-27T23:25:54.051Z,86140.97
2022-08-27T23:28:23.547Z,86088.31
2022-08-27T23:30:51.109Z,86141.25
2022-08-27T23:33:19.262Z,86073.72
2022-08-27T23:35:48.403Z,86116.19
2022-08-27T23:38:18.425Z,86111.22
2022-08-27T23:40:47.120Z,86118.44
2022-08-27T23:43:16.051Z,86132.38
2022-08-27T23:45:43.732Z,86098.75
2022-08-27T23:48:12.356Z,86121.50
2022-08-27T23:50:40.941Z,86123.19
2022-08-27T23:53:09.375Z,86127.56
2022-08-27T23:55:40.291Z,86088.06
2022-08-27T23:58:10.037Z,86086.69
